sensor_id;sensor_type;location;lat;lon;timestamp;pressure;altitude;pressure_sealevel;temperature
62611;BMP280;48683;48.084;17.272;2023-07-09T00:00:21;100713.72;;;20.75
62611;BMP280;48683;48.084;17.272;2023-07-09T00:02:48;100713.56;;;20.69
62611;BMP280;48683;48.084;17.272;2023-07-09T00:05:14;100716.72;;;20.68
62611;BMP280;48683;48.084;17.272;2023-07-09T00:07:40;100712.25;;;20.61
62611;BMP280;48683;48.084;17.272;2023-07-09T00:10:14;100711.75;;;20.54
62611;BMP280;48683;48.084;17.272;2023-07-09T00:12:39;100717.63;;;20.52
62611;BMP280;48683;48.084;17.272;2023-07-09T00:15:05;100704.38;;;20.29
62611;BMP280;48683;48.084;17.272;2023-07-09T00:17:32;100715.28;;;20.29
62611;BMP280;48683;48.084;17.272;2023-07-09T00:20:02;100718.00;;;20.29
62611;BMP280;48683;48.084;17.272;2023-07-09T00:22:30;100721.59;;;20.01
62611;BMP280;48683;48.084;17.272;2023-07-09T00:24:55;100721.59;;;20.01
62611;BMP280;48683;48.084;17.272;2023-07-09T00:27:25;100713.75;;;19.77
62611;BMP280;48683;48.084;17.272;2023-07-09T00:29:51;100723.03;;;19.67
62611;BMP280;48683;48.084;17.272;2023-07-09T00:32:19;100729.44;;;19.61
62611;BMP280;48683;48.084;17.272;2023-07-09T00:34:47;100723.13;;;19.64
62611;BMP280;48683;48.084;17.272;2023-07-09T00:37:20;100729.88;;;19.59
62611;BMP280;48683;48.084;17.272;2023-07-09T00:39:47;100728.91;;;19.53
62611;BMP280;48683;48.084;17.272;2023-07-09T00:42:17;100734.34;;;19.53
62611;BMP280;48683;48.084;17.272;2023-07-09T00:44:44;100727.16;;;19.30
62611;BMP280;48683;48.084;17.272;2023-07-09T00:52:56;100723.59;;;19.05
62611;BMP280;48683;48.084;17.272;2023-07-09T00:55:29;100739.38;;;19.26
62611;BMP280;48683;48.084;17.272;2023-07-09T00:58:00;100729.88;;;19.18
62611;BMP280;48683;48.084;17.272;2023-07-09T01:00:33;100733.09;;;19.13
62611;BMP280;48683;48.084;17.272;2023-07-09T01:03:18;100735.56;;;18.94
62611;BMP280;48683;48.084;17.272;2023-07-09T01:05:46;100741.78;;;18.79
62611;BMP280;48683;48.084;17.272;2023-07-09T01:08:17;100739.00;;;18.66
62611;BMP280;48683;48.084;17.272;2023-07-09T01:10:42;100748.75;;;18.64
62611;BMP280;48683;48.084;17.272;2023-07-09T01:13:08;100743.09;;;18.58
62611;BMP280;48683;48.084;17.272;2023-07-09T01:15:34;100743.31;;;18.64
62611;BMP280;48683;48.084;17.272;2023-07-09T01:18:05;100746.13;;;18.60
62611;BMP280;48683;48.084;17.272;2023-07-09T01:20:30;100741.03;;;18.62
62611;BMP280;48683;48.084;17.272;2023-07-09T01:22:56;100747.22;;;18.46
62611;BMP280;48683;48.084;17.272;2023-07-09T01:25:23;100752.41;;;18.41
62611;BMP280;48683;48.084;17.272;2023-07-09T01:27:48;100752.41;;;18.41
62611;BMP280;48683;48.084;17.272;2023-07-09T01:30:31;100753.34;;;18.34
62611;BMP280;48683;48.084;17.272;2023-07-09T01:32:58;100753.44;;;18.31
62611;BMP280;48683;48.084;17.272;2023-07-09T01:35:25;100748.16;;;18.24
62611;BMP280;48683;48.084;17.272;2023-07-09T01:37:51;100748.16;;;18.24
62611;BMP280;48683;48.084;17.272;2023-07-09T01:40:19;100747.50;;;18.36
62611;BMP280;48683;48.084;17.272;2023-07-09T01:42:45;100757.69;;;18.48
62611;BMP280;48683;48.084;17.272;2023-07-09T01:45:12;100755.66;;;18.52
62611;BMP280;48683;48.084;17.272;2023-07-09T01:47:38;100756.69;;;18.58
62611;BMP280;48683;48.084;17.272;2023-07-09T01:50:05;100753.09;;;18.61
62611;BMP280;48683;48.084;17.272;2023-07-09T01:52:32;100767.13;;;18.60
62611;BMP280;48683;48.084;17.272;2023-07-09T01:54:58;100758.31;;;18.56
62611;BMP280;48683;48.084;17.272;2023-07-09T01:57:26;100770.09;;;18.65
62611;BMP280;48683;48.084;17.272;2023-07-09T01:59:59;100761.03;;;18.56
62611;BMP280;48683;48.084;17.272;2023-07-09T02:02:24;100761.03;;;18.56
62611;BMP280;48683;48.084;17.272;2023-07-09T02:04:55;100765.75;;;18.68
62611;BMP280;48683;48.084;17.272;2023-07-09T02:07:23;100768.91;;;18.82
62611;BMP280;48683;48.084;17.272;2023-07-09T02:09:49;100766.69;;;18.77
62611;BMP280;48683;48.084;17.272;2023-07-09T02:12:15;100771.34;;;18.77
62611;BMP280;48683;48.084;17.272;2023-07-09T02:14:41;100769.91;;;18.72
62611;BMP280;48683;48.084;17.272;2023-07-09T02:17:08;100765.69;;;18.71
62611;BMP280;48683;48.084;17.272;2023-07-09T02:19:34;100764.66;;;18.65
62611;BMP280;48683;48.084;17.272;2023-07-09T02:21:59;100770.19;;;18.62
62611;BMP280;48683;48.084;17.272;2023-07-09T02:24:25;100762.22;;;18.55
62611;BMP280;48683;48.084;17.272;2023-07-09T02:26:52;100768.06;;;18.53
62611;BMP280;48683;48.084;17.272;2023-07-09T02:29:18;100767.69;;;18.51
62611;BMP280;48683;48.084;17.272;2023-07-09T02:31:44;100769.38;;;18.45
62611;BMP280;48683;48.084;17.272;2023-07-09T02:34:09;100772.09;;;18.45
62611;BMP280;48683;48.084;17.272;2023-07-09T02:36:35;100766.75;;;18.41
62611;BMP280;48683;48.084;17.272;2023-07-09T02:39:00;100775.19;;;18.47
62611;BMP280;48683;48.084;17.272;2023-07-09T02:41:25;100776.03;;;18.60
62611;BMP280;48683;48.084;17.272;2023-07-09T02:43:51;100774.94;;;18.58
62611;BMP280;48683;48.084;17.272;2023-07-09T02:46:16;100781.75;;;18.66
62611;BMP280;48683;48.084;17.272;2023-07-09T02:48:43;100773.22;;;18.64
62611;BMP280;48683;48.084;17.272;2023-07-09T02:51:08;100779.88;;;18.63
62611;BMP280;48683;48.084;17.272;2023-07-09T02:53:33;100784.88;;;18.64
62611;BMP280;48683;48.084;17.272;2023-07-09T02:55:59;100788.88;;;18.60
62611;BMP280;48683;48.084;17.272;2023-07-09T02:58:24;100790.94;;;18.56
62611;BMP280;48683;48.084;17.272;2023-07-09T03:00:50;100790.47;;;18.57
62611;BMP280;48683;48.084;17.272;2023-07-09T03:03:19;100785.44;;;18.39
62611;BMP280;48683;48.084;17.272;2023-07-09T03:05:45;100789.16;;;18.29
62611;BMP280;48683;48.084;17.272;2023-07-09T03:08:11;100788.16;;;18.23
62611;BMP280;48683;48.084;17.272;2023-07-09T03:10:36;100805.31;;;18.20
62611;BMP280;48683;48.084;17.272;2023-07-09T03:13:01;100795.44;;;18.10
62611;BMP280;48683;48.084;17.272;2023-07-09T03:15:26;100789.22;;;18.10
62611;BMP280;48683;48.084;17.272;2023-07-09T03:17:52;100798.72;;;18.01
62611;BMP280;48683;48.084;17.272;2023-07-09T03:20:17;100797.41;;;17.90
62611;BMP280;48683;48.084;17.272;2023-07-09T03:22:42;100792.78;;;18.07
62611;BMP280;48683;48.084;17.272;2023-07-09T03:25:08;100795.13;;;18.24
62611;BMP280;48683;48.084;17.272;2023-07-09T03:27:33;100801.56;;;18.30
62611;BMP280;48683;48.084;17.272;2023-07-09T03:29:58;100800.47;;;18.28
62611;BMP280;48683;48.084;17.272;2023-07-09T03:32:25;100805.63;;;18.22
62611;BMP280;48683;48.084;17.272;2023-07-09T03:34:51;100809.28;;;18.16
62611;BMP280;48683;48.084;17.272;2023-07-09T03:37:18;100811.66;;;18.14
62611;BMP280;48683;48.084;17.272;2023-07-09T03:39:45;100821.75;;;18.13
62611;BMP280;48683;48.084;17.272;2023-07-09T03:42:10;100821.75;;;18.13
62611;BMP280;48683;48.084;17.272;2023-07-09T03:44:36;100818.38;;;18.25
62611;BMP280;48683;48.084;17.272;2023-07-09T03:47:01;100814.28;;;18.17
62611;BMP280;48683;48.084;17.272;2023-07-09T03:49:27;100815.06;;;18.18
62611;BMP280;48683;48.084;17.272;2023-07-09T03:51:52;100812.16;;;18.09
62611;BMP280;48683;48.084;17.272;2023-07-09T03:54:17;100808.16;;;18.13
62611;BMP280;48683;48.084;17.272;2023-07-09T03:56:42;100816.19;;;18.20
62611;BMP280;48683;48.084;17.272;2023-07-09T03:59:08;100816.78;;;18.28
62611;BMP280;48683;48.084;17.272;2023-07-09T04:01:33;100815.69;;;18.41
62611;BMP280;48683;48.084;17.272;2023-07-09T04:03:58;100812.53;;;18.43
62611;BMP280;48683;48.084;17.272;2023-07-09T04:06:24;100816.81;;;18.60
62611;BMP280;48683;48.084;17.272;2023-07-09T04:08:49;100819.72;;;18.69
62611;BMP280;48683;48.084;17.272;2023-07-09T04:11:14;100819.03;;;18.81
62611;BMP280;48683;48.084;17.272;2023-07-09T04:13:40;100827.94;;;18.98
62611;BMP280;48683;48.084;17.272;2023-07-09T04:16:05;100831.06;;;19.13
62611;BMP280;48683;48.084;17.272;2023-07-09T04:18:30;100826.53;;;19.22
62611;BMP280;48683;48.084;17.272;2023-07-09T04:20:56;100837.47;;;19.35
62611;BMP280;48683;48.084;17.272;2023-07-09T04:23:21;100838.31;;;19.48
62611;BMP280;48683;48.084;17.272;2023-07-09T04:25:47;100832.81;;;19.64
62611;BMP280;48683;48.084;17.272;2023-07-09T04:28:12;100837.44;;;19.80
62611;BMP280;48683;48.084;17.272;2023-07-09T04:30:38;100829.72;;;19.91
62611;BMP280;48683;48.084;17.272;2023-07-09T04:33:03;100828.53;;;20.05
62611;BMP280;48683;48.084;17.272;2023-07-09T04:35:29;100827.66;;;20.08
62611;BMP280;48683;48.084;17.272;2023-07-09T04:37:54;100828.22;;;20.15
62611;BMP280;48683;48.084;17.272;2023-07-09T04:40:19;100831.81;;;20.25
62611;BMP280;48683;48.084;17.272;2023-07-09T04:42:45;100828.88;;;20.32
62611;BMP280;48683;48.084;17.272;2023-07-09T04:45:11;100833.25;;;20.55
62611;BMP280;48683;48.084;17.272;2023-07-09T04:47:38;100835.22;;;20.54
62611;BMP280;48683;48.084;17.272;2023-07-09T04:50:04;100830.63;;;20.64
62611;BMP280;48683;48.084;17.272;2023-07-09T04:52:30;100842.06;;;20.71
62611;BMP280;48683;48.084;17.272;2023-07-09T04:54:56;100841.94;;;20.88
62611;BMP280;48683;48.084;17.272;2023-07-09T04:57:21;100841.91;;;21.00
62611;BMP280;48683;48.084;17.272;2023-07-09T04:59:47;100843.31;;;21.05
62611;BMP280;48683;48.084;17.272;2023-07-09T05:02:13;100841.19;;;21.21
62611;BMP280;48683;48.084;17.272;2023-07-09T05:04:39;100834.31;;;21.17
62611;BMP280;48683;48.084;17.272;2023-07-09T05:07:04;100835.19;;;21.26
62611;BMP280;48683;48.084;17.272;2023-07-09T05:09:30;100842.88;;;21.41
62611;BMP280;48683;48.084;17.272;2023-07-09T05:11:55;100851.13;;;21.50
62611;BMP280;48683;48.084;17.272;2023-07-09T05:14:21;100858.81;;;21.64
62611;BMP280;48683;48.084;17.272;2023-07-09T05:16:46;100847.06;;;21.76
62611;BMP280;48683;48.084;17.272;2023-07-09T05:19:12;100850.75;;;21.82
62611;BMP280;48683;48.084;17.272;2023-07-09T05:21:37;100857.03;;;21.92
62611;BMP280;48683;48.084;17.272;2023-07-09T05:24:04;100853.41;;;21.95
62611;BMP280;48683;48.084;17.272;2023-07-09T05:26:30;100850.31;;;22.05
62611;BMP280;48683;48.084;17.272;2023-07-09T05:28:55;100851.31;;;22.30
62611;BMP280;48683;48.084;17.272;2023-07-09T05:31:22;100850.00;;;22.43
62611;BMP280;48683;48.084;17.272;2023-07-09T05:33:47;100856.25;;;22.53
62611;BMP280;48683;48.084;17.272;2023-07-09T05:36:13;100855.59;;;22.80
62611;BMP280;48683;48.084;17.272;2023-07-09T05:38:42;100853.34;;;22.87
62611;BMP280;48683;48.084;17.272;2023-07-09T05:41:07;100848.47;;;22.91
62611;BMP280;48683;48.084;17.272;2023-07-09T05:43:33;100850.44;;;23.00
62611;BMP280;48683;48.084;17.272;2023-07-09T05:46:01;100860.34;;;23.15
62611;BMP280;48683;48.084;17.272;2023-07-09T05:48:26;100858.84;;;23.24
62611;BMP280;48683;48.084;17.272;2023-07-09T05:50:53;100863.88;;;23.52
62611;BMP280;48683;48.084;17.272;2023-07-09T05:53:19;100858.53;;;23.67
62611;BMP280;48683;48.084;17.272;2023-07-09T05:55:44;100860.50;;;23.67
62611;BMP280;48683;48.084;17.272;2023-07-09T05:58:09;100859.28;;;23.77
62611;BMP280;48683;48.084;17.272;2023-07-09T06:00:35;100857.56;;;23.97
62611;BMP280;48683;48.084;17.272;2023-07-09T06:03:03;100848.22;;;24.13
62611;BMP280;48683;48.084;17.272;2023-07-09T06:05:32;100855.66;;;24.31
62611;BMP280;48683;48.084;17.272;2023-07-09T06:07:57;100853.00;;;24.36
62611;BMP280;48683;48.084;17.272;2023-07-09T06:10:23;100851.28;;;24.48
62611;BMP280;48683;48.084;17.272;2023-07-09T06:12:48;100855.00;;;24.69
62611;BMP280;48683;48.084;17.272;2023-07-09T06:15:14;100856.34;;;24.73
62611;BMP280;48683;48.084;17.272;2023-07-09T06:17:39;100860.22;;;24.90
62611;BMP280;48683;48.084;17.272;2023-07-09T06:20:05;100857.72;;;25.01
62611;BMP280;48683;48.084;17.272;2023-07-09T06:22:30;100862.03;;;25.17
62611;BMP280;48683;48.084;17.272;2023-07-09T06:24:56;100865.94;;;25.40
62611;BMP280;48683;48.084;17.272;2023-07-09T06:27:21;100851.34;;;25.34
62611;BMP280;48683;48.084;17.272;2023-07-09T06:29:46;100852.81;;;25.59
62611;BMP280;48683;48.084;17.272;2023-07-09T06:32:12;100853.69;;;25.79
62611;BMP280;48683;48.084;17.272;2023-07-09T06:34:37;100851.22;;;25.67
62611;BMP280;48683;48.084;17.272;2023-07-09T06:37:03;100851.97;;;25.96
62611;BMP280;48683;48.084;17.272;2023-07-09T06:39:30;100851.41;;;25.92
62611;BMP280;48683;48.084;17.272;2023-07-09T06:41:55;100850.44;;;26.10
62611;BMP280;48683;48.084;17.272;2023-07-09T06:44:20;100855.44;;;26.26
62611;BMP280;48683;48.084;17.272;2023-07-09T06:46:46;100852.19;;;26.42
62611;BMP280;48683;48.084;17.272;2023-07-09T06:49:13;100853.25;;;26.65
62611;BMP280;48683;48.084;17.272;2023-07-09T06:51:38;100850.22;;;26.63
62611;BMP280;48683;48.084;17.272;2023-07-09T06:54:04;100847.22;;;26.61
62611;BMP280;48683;48.084;17.272;2023-07-09T06:56:30;100857.44;;;26.96
62611;BMP280;48683;48.084;17.272;2023-07-09T06:58:56;100851.09;;;27.10
62611;BMP280;48683;48.084;17.272;2023-07-09T07:01:22;100847.00;;;27.25
62611;BMP280;48683;48.084;17.272;2023-07-09T07:03:47;100833.78;;;27.29
62611;BMP280;48683;48.084;17.272;2023-07-09T07:06:13;100837.63;;;27.37
62611;BMP280;48683;48.084;17.272;2023-07-09T07:08:38;100830.59;;;27.36
62611;BMP280;48683;48.084;17.272;2023-07-09T07:11:04;100830.31;;;27.34
62611;BMP280;48683;48.084;17.272;2023-07-09T07:13:32;100833.97;;;27.46
62611;BMP280;48683;48.084;17.272;2023-07-09T07:15:59;100837.16;;;27.65
62611;BMP280;48683;48.084;17.272;2023-07-09T07:18:24;100832.31;;;27.54
62611;BMP280;48683;48.084;17.272;2023-07-09T07:20:50;100833.78;;;27.81
62611;BMP280;48683;48.084;17.272;2023-07-09T07:23:16;100826.91;;;28.02
62611;BMP280;48683;48.084;17.272;2023-07-09T07:25:42;100831.38;;;27.94
62611;BMP280;48683;48.084;17.272;2023-07-09T07:28:07;100823.53;;;28.13
62611;BMP280;48683;48.084;17.272;2023-07-09T07:30:33;100829.13;;;28.29
62611;BMP280;48683;48.084;17.272;2023-07-09T07:32:58;100816.81;;;28.25
62611;BMP280;48683;48.084;17.272;2023-07-09T07:35:24;100818.16;;;28.41
62611;BMP280;48683;48.084;17.272;2023-07-09T07:37:49;100814.59;;;28.71
62611;BMP280;48683;48.084;17.272;2023-07-09T07:40:15;100810.09;;;28.85
62611;BMP280;48683;48.084;17.272;2023-07-09T07:42:40;100824.75;;;29.02
62611;BMP280;48683;48.084;17.272;2023-07-09T07:45:06;100819.72;;;29.12
62611;BMP280;48683;48.084;17.272;2023-07-09T07:47:32;100815.75;;;29.24
62611;BMP280;48683;48.084;17.272;2023-07-09T07:49:58;100815.75;;;29.24
62611;BMP280;48683;48.084;17.272;2023-07-09T07:52:23;100802.97;;;29.38
62611;BMP280;48683;48.084;17.272;2023-07-09T07:54:50;100806.50;;;29.66
62611;BMP280;48683;48.084;17.272;2023-07-09T07:57:15;100804.47;;;29.50
62611;BMP280;48683;48.084;17.272;2023-07-09T07:59:41;100795.69;;;29.62
62611;BMP280;48683;48.084;17.272;2023-07-09T08:02:11;100800.47;;;29.62
62611;BMP280;48683;48.084;17.272;2023-07-09T08:04:36;100799.22;;;29.57
62611;BMP280;48683;48.084;17.272;2023-07-09T08:07:02;100795.94;;;29.59
62611;BMP280;48683;48.084;17.272;2023-07-09T08:09:27;100799.47;;;29.54
62611;BMP280;48683;48.084;17.272;2023-07-09T08:11:53;100791.94;;;29.54
62611;BMP280;48683;48.084;17.272;2023-07-09T08:14:18;100804.75;;;29.63
62611;BMP280;48683;48.084;17.272;2023-07-09T08:16:43;100799.75;;;29.73
62611;BMP280;48683;48.084;17.272;2023-07-09T08:19:09;100799.19;;;29.85
62611;BMP280;48683;48.084;17.272;2023-07-09T08:21:34;100792.69;;;29.99
62611;BMP280;48683;48.084;17.272;2023-07-09T08:24:00;100799.47;;;29.65
62611;BMP280;48683;48.084;17.272;2023-07-09T08:26:25;100793.94;;;29.93
62611;BMP280;48683;48.084;17.272;2023-07-09T08:28:51;100792.44;;;29.97
62611;BMP280;48683;48.084;17.272;2023-07-09T08:31:17;100793.72;;;29.91
62611;BMP280;48683;48.084;17.272;2023-07-09T08:33:42;100780.09;;;30.04
62611;BMP280;48683;48.084;17.272;2023-07-09T08:36:08;100781.59;;;30.10
62611;BMP280;48683;48.084;17.272;2023-07-09T08:38:33;100784.34;;;30.27
62611;BMP280;48683;48.084;17.272;2023-07-09T08:41:07;100789.06;;;30.32
62611;BMP280;48683;48.084;17.272;2023-07-09T08:46:27;100780.47;;;30.52
62611;BMP280;48683;48.084;17.272;2023-07-09T08:48:56;100781.72;;;30.57
62611;BMP280;48683;48.084;17.272;2023-07-09T08:51:41;100791.72;;;30.71
62611;BMP280;48683;48.084;17.272;2023-07-09T08:54:33;100785.66;;;30.78
62611;BMP280;48683;48.084;17.272;2023-07-09T08:57:08;100778.84;;;30.85
62611;BMP280;48683;48.084;17.272;2023-07-09T08:59:36;100779.34;;;30.83
62611;BMP280;48683;48.084;17.272;2023-07-09T09:02:03;100785.31;;;30.98
62611;BMP280;48683;48.084;17.272;2023-07-09T09:04:32;100783.00;;;31.08
62611;BMP280;48683;48.084;17.272;2023-07-09T09:07:31;100783.00;;;31.08
62611;BMP280;48683;48.084;17.272;2023-07-09T09:10:01;100776.84;;;31.21
62611;BMP280;48683;48.084;17.272;2023-07-09T09:12:31;100777.94;;;31.12
62611;BMP280;48683;48.084;17.272;2023-07-09T09:15:03;100777.81;;;31.29
62611;BMP280;48683;48.084;17.272;2023-07-09T09:17:32;100782.06;;;31.35
62611;BMP280;48683;48.084;17.272;2023-07-09T09:20:01;100780.03;;;31.36
62611;BMP280;48683;48.084;17.272;2023-07-09T09:22:43;100780.66;;;31.18
62611;BMP280;48683;48.084;17.272;2023-07-09T09:27:45;100788.63;;;31.32
62611;BMP280;48683;48.084;17.272;2023-07-09T09:30:14;100788.59;;;31.38
62611;BMP280;48683;48.084;17.272;2023-07-09T09:32:44;100786.47;;;31.49
62611;BMP280;48683;48.084;17.272;2023-07-09T09:35:17;100786.41;;;31.61
62611;BMP280;48683;48.084;17.272;2023-07-09T09:37:54;100786.84;;;31.70
62611;BMP280;48683;48.084;17.272;2023-07-09T09:40:21;100787.06;;;31.72
62611;BMP280;48683;48.084;17.272;2023-07-09T09:42:52;100778.72;;;31.78
62611;BMP280;48683;48.084;17.272;2023-07-09T09:45:21;100775.56;;;31.87
62611;BMP280;48683;48.084;17.272;2023-07-09T09:47:47;100776.56;;;31.89
62611;BMP280;48683;48.084;17.272;2023-07-09T09:50:18;100781.53;;;31.96
62611;BMP280;48683;48.084;17.272;2023-07-09T09:52:44;100786.28;;;32.01
62611;BMP280;48683;48.084;17.272;2023-07-09T09:55:13;100788.72;;;32.11
62611;BMP280;48683;48.084;17.272;2023-07-09T09:57:47;100789.97;;;32.15
62611;BMP280;48683;48.084;17.272;2023-07-09T10:00:14;100779.00;;;32.23
62611;BMP280;48683;48.084;17.272;2023-07-09T10:02:41;100778.44;;;32.30
62611;BMP280;48683;48.084;17.272;2023-07-09T10:05:16;100779.81;;;32.42
62611;BMP280;48683;48.084;17.272;2023-07-09T10:08:06;100779.75;;;32.47
62611;BMP280;48683;48.084;17.272;2023-07-09T10:10:33;100774.09;;;32.53
62611;BMP280;48683;48.084;17.272;2023-07-09T10:13:05;100768.97;;;32.63
62611;BMP280;48683;48.084;17.272;2023-07-09T10:18:06;100771.69;;;32.68
62611;BMP280;48683;48.084;17.272;2023-07-09T10:20:37;100758.25;;;32.72
62611;BMP280;48683;48.084;17.272;2023-07-09T10:25:55;100768.59;;;32.72
62611;BMP280;48683;48.084;17.272;2023-07-09T10:31:41;100755.63;;;32.80
62611;BMP280;48683;48.084;17.272;2023-07-09T10:37:04;100761.59;;;33.03
62611;BMP280;48683;48.084;17.272;2023-07-09T10:39:38;100752.41;;;33.08
62611;BMP280;48683;48.084;17.272;2023-07-09T10:42:25;100757.06;;;33.00
62611;BMP280;48683;48.084;17.272;2023-07-09T10:44:56;100747.25;;;33.17
62611;BMP280;48683;48.084;17.272;2023-07-09T10:47:33;100741.06;;;33.06
62611;BMP280;48683;48.084;17.272;2023-07-09T10:50:02;100747.44;;;33.19
62611;BMP280;48683;48.084;17.272;2023-07-09T10:52:34;100751.22;;;33.22
62611;BMP280;48683;48.084;17.272;2023-07-09T10:55:12;100747.75;;;33.16
62611;BMP280;48683;48.084;17.272;2023-07-09T10:57:48;100749.78;;;33.15
62611;BMP280;48683;48.084;17.272;2023-07-09T11:00:19;100748.56;;;33.29
62611;BMP280;48683;48.084;17.272;2023-07-09T11:02:48;100741.25;;;33.13
62611;BMP280;48683;48.084;17.272;2023-07-09T11:05:15;100742.13;;;33.21
62611;BMP280;48683;48.084;17.272;2023-07-09T11:07:43;100742.13;;;33.21
62611;BMP280;48683;48.084;17.272;2023-07-09T11:10:22;100746.47;;;33.49
62611;BMP280;48683;48.084;17.272;2023-07-09T11:12:57;100752.75;;;33.36
62611;BMP280;48683;48.084;17.272;2023-07-09T11:15:30;100740.59;;;33.52
62611;BMP280;48683;48.084;17.272;2023-07-09T11:17:57;100732.34;;;33.47
62611;BMP280;48683;48.084;17.272;2023-07-09T11:20:41;100729.25;;;33.63
62611;BMP280;48683;48.084;17.272;2023-07-09T11:23:20;100740.94;;;33.62
62611;BMP280;48683;48.084;17.272;2023-07-09T11:25:49;100740.53;;;33.71
62611;BMP280;48683;48.084;17.272;2023-07-09T11:28:35;100737.66;;;33.90
62611;BMP280;48683;48.084;17.272;2023-07-09T11:31:14;100734.88;;;34.03
62611;BMP280;48683;48.084;17.272;2023-07-09T11:33:46;100733.59;;;34.04
62611;BMP280;48683;48.084;17.272;2023-07-09T11:36:23;100728.03;;;34.04
62611;BMP280;48683;48.084;17.272;2023-07-09T11:38:48;100721.50;;;34.01
62611;BMP280;48683;48.084;17.272;2023-07-09T11:41:39;100721.50;;;34.01
62611;BMP280;48683;48.084;17.272;2023-07-09T11:46:36;100714.53;;;34.08
62611;BMP280;48683;48.084;17.272;2023-07-09T11:49:09;100710.88;;;34.13
62611;BMP280;48683;48.084;17.272;2023-07-09T11:51:46;100714.88;;;34.17
62611;BMP280;48683;48.084;17.272;2023-07-09T11:54:15;100713.03;;;34.07
62611;BMP280;48683;48.084;17.272;2023-07-09T11:56:40;100716.47;;;34.00
62611;BMP280;48683;48.084;17.272;2023-07-09T11:59:08;100721.94;;;33.92
62611;BMP280;48683;48.084;17.272;2023-07-09T12:01:42;100717.09;;;34.06
62611;BMP280;48683;48.084;17.272;2023-07-09T12:04:13;100710.69;;;33.98
62611;BMP280;48683;48.084;17.272;2023-07-09T12:06:40;100696.44;;;34.01
62611;BMP280;48683;48.084;17.272;2023-07-09T12:09:05;100703.19;;;34.19
62611;BMP280;48683;48.084;17.272;2023-07-09T12:11:33;100703.50;;;34.02
62611;BMP280;48683;48.084;17.272;2023-07-09T12:14:25;100703.19;;;34.06
62611;BMP280;48683;48.084;17.272;2023-07-09T12:16:53;100698.16;;;34.04
62611;BMP280;48683;48.084;17.272;2023-07-09T12:19:30;100699.72;;;34.13
62611;BMP280;48683;48.084;17.272;2023-07-09T12:21:57;100689.03;;;34.30
62611;BMP280;48683;48.084;17.272;2023-07-09T12:24:28;100684.00;;;34.28
62611;BMP280;48683;48.084;17.272;2023-07-09T12:26:56;100687.00;;;34.30
62611;BMP280;48683;48.084;17.272;2023-07-09T12:29:27;100680.78;;;34.24
62611;BMP280;48683;48.084;17.272;2023-07-09T12:31:56;100687.72;;;34.44
62611;BMP280;48683;48.084;17.272;2023-07-09T12:34:21;100675.72;;;34.36
62611;BMP280;48683;48.084;17.272;2023-07-09T12:36:49;100687.38;;;34.48
62611;BMP280;48683;48.084;17.272;2023-07-09T12:39:18;100671.53;;;34.43
62611;BMP280;48683;48.084;17.272;2023-07-09T12:41:45;100673.78;;;34.44
62611;BMP280;48683;48.084;17.272;2023-07-09T12:44:16;100676.53;;;34.57
62611;BMP280;48683;48.084;17.272;2023-07-09T12:46:43;100668.84;;;34.50
62611;BMP280;48683;48.084;17.272;2023-07-09T12:49:28;100649.69;;;34.47
62611;BMP280;48683;48.084;17.272;2023-07-09T12:51:55;100668.50;;;34.54
62611;BMP280;48683;48.084;17.272;2023-07-09T12:54:20;100664.72;;;34.64
62611;BMP280;48683;48.084;17.272;2023-07-09T12:56:53;100656.06;;;34.55
62611;BMP280;48683;48.084;17.272;2023-07-09T13:01:49;100659.75;;;34.37
62611;BMP280;48683;48.084;17.272;2023-07-09T13:04:15;100651.16;;;34.48
62611;BMP280;48683;48.084;17.272;2023-07-09T13:06:42;100643.28;;;34.39
62611;BMP280;48683;48.084;17.272;2023-07-09T13:09:18;100650.91;;;34.25
62611;BMP280;48683;48.084;17.272;2023-07-09T13:11:45;100647.69;;;34.21
62611;BMP280;48683;48.084;17.272;2023-07-09T13:14:19;100644.88;;;34.34
62611;BMP280;48683;48.084;17.272;2023-07-09T13:16:44;100646.75;;;34.52
62611;BMP280;48683;48.084;17.272;2023-07-09T13:19:10;100642.00;;;34.60
62611;BMP280;48683;48.084;17.272;2023-07-09T13:21:38;100643.13;;;34.78
62611;BMP280;48683;48.084;17.272;2023-07-09T13:24:24;100627.47;;;34.75
62611;BMP280;48683;48.084;17.272;2023-07-09T13:26:50;100628.38;;;34.91
62611;BMP280;48683;48.084;17.272;2023-07-09T13:29:18;100633.06;;;34.96
62611;BMP280;48683;48.084;17.272;2023-07-09T13:31:45;100623.41;;;34.97
62611;BMP280;48683;48.084;17.272;2023-07-09T13:34:19;100627.41;;;35.09
62611;BMP280;48683;48.084;17.272;2023-07-09T13:36:45;100627.53;;;35.03
62611;BMP280;48683;48.084;17.272;2023-07-09T13:39:11;100628.75;;;35.36
62611;BMP280;48683;48.084;17.272;2023-07-09T13:41:38;100623.97;;;35.44
62611;BMP280;48683;48.084;17.272;2023-07-09T13:44:11;100622.16;;;35.54
62611;BMP280;48683;48.084;17.272;2023-07-09T13:46:37;100628.63;;;35.49
62611;BMP280;48683;48.084;17.272;2023-07-09T13:49:02;100623.22;;;35.44
62611;BMP280;48683;48.084;17.272;2023-07-09T13:51:29;100615.94;;;35.41
62611;BMP280;48683;48.084;17.272;2023-07-09T13:53:56;100624.00;;;35.52
62611;BMP280;48683;48.084;17.272;2023-07-09T13:56:22;100618.03;;;35.48
62611;BMP280;48683;48.084;17.272;2023-07-09T13:58:48;100610.47;;;35.28
62611;BMP280;48683;48.084;17.272;2023-07-09T14:01:18;100615.25;;;35.48
62611;BMP280;48683;48.084;17.272;2023-07-09T14:03:44;100610.75;;;35.16
62611;BMP280;48683;48.084;17.272;2023-07-09T14:06:15;100624.91;;;35.18
62611;BMP280;48683;48.084;17.272;2023-07-09T14:08:41;100614.59;;;35.34
62611;BMP280;48683;48.084;17.272;2023-07-09T14:11:11;100615.94;;;35.41
62611;BMP280;48683;48.084;17.272;2023-07-09T14:13:37;100610.50;;;35.35
62611;BMP280;48683;48.084;17.272;2023-07-09T14:16:03;100609.97;;;35.37